createdAt,value
2023-12-12T00:01:25.783Z,13.03
2023-12-12T00:03:52.885Z,14.70
2023-12-12T00:14:38.413Z,12.30
2023-12-12T00:17:05.458Z,11.50
2023-12-12T00:19:32.177Z,14.57
2023-12-12T00:21:58.996Z,10.23
2023-12-12T00:24:25.848Z,10.53
2023-12-12T00:26:52.831Z,8.97
2023-12-12T00:29:19.550Z,9.47
2023-12-12T00:31:46.277Z,10.43
2023-12-12T00:34:13.067Z,7.90
2023-12-12T00:36:39.818Z,11.13
2023-12-12T00:39:07.208Z,8.33
2023-12-12T00:41:35.045Z,8.40
2023-12-12T00:44:02.127Z,8.13
2023-12-12T00:46:28.978Z,6.43
2023-12-12T00:48:56.115Z,8.73
2023-12-12T00:51:23.029Z,7.90
2023-12-12T00:53:50.187Z,8.63
2023-12-12T00:56:16.969Z,5.43
2023-12-12T00:58:43.689Z,7.37
2023-12-12T01:01:12.886Z,8.23
2023-12-12T01:03:40.205Z,6.80
2023-12-12T01:06:07.588Z,7.03
2023-12-12T01:08:34.676Z,5.73
2023-12-12T01:11:02.056Z,6.00
2023-12-12T01:13:28.938Z,7.53
2023-12-12T01:15:55.709Z,3.60
2023-12-12T01:18:22.566Z,5.53
2023-12-12T01:20:49.414Z,7.47
2023-12-12T01:23:16.697Z,4.43
2023-12-12T01:25:43.652Z,5.37
2023-12-12T01:28:10.471Z,5.77
2023-12-12T01:30:39.354Z,7.53
2023-12-12T01:33:06.942Z,4.77
2023-12-12T01:35:33.760Z,8.03
2023-12-12T01:38:00.493Z,6.70
2023-12-12T01:40:27.257Z,7.87
2023-12-12T01:43:05.460Z,4.63
2023-12-12T01:45:32.212Z,6.83
2023-12-12T01:47:59.178Z,7.10
2023-12-12T01:50:26.046Z,5.90
2023-12-12T01:52:53.358Z,6.77
2023-12-12T01:55:20.408Z,3.47
2023-12-12T01:57:47.146Z,9.50
2023-12-12T02:00:14.655Z,5.40
2023-12-12T02:02:41.510Z,4.70
2023-12-12T02:05:08.884Z,8.13
2023-12-12T02:07:37.171Z,6.67
2023-12-12T02:10:04.619Z,6.10
2023-12-12T02:12:31.720Z,6.90
2023-12-12T02:14:58.556Z,6.30
2023-12-12T02:17:25.369Z,7.03
2023-12-12T02:19:52.279Z,6.30
2023-12-12T02:22:19.100Z,4.13
2023-12-12T02:24:45.857Z,5.73
2023-12-12T02:27:12.824Z,8.23
2023-12-12T02:29:39.636Z,3.97
2023-12-12T02:32:06.659Z,7.07
2023-12-12T02:34:33.656Z,8.73
2023-12-12T02:37:00.492Z,5.70
2023-12-12T02:39:27.253Z,6.23
2023-12-12T02:41:54.162Z,6.13
2023-12-12T02:44:20.942Z,6.23
2023-12-12T02:46:47.705Z,10.37
2023-12-12T02:49:14.578Z,7.00
2023-12-12T02:51:41.374Z,4.93
2023-12-12T02:54:08.113Z,7.97
2023-12-12T02:56:34.889Z,6.40
2023-12-12T02:59:01.859Z,5.10
2023-12-12T03:01:28.759Z,3.53
2023-12-12T03:03:55.750Z,6.33
2023-12-12T03:06:22.692Z,5.77
2023-12-12T03:08:49.519Z,7.17
2023-12-12T03:11:16.338Z,6.13
2023-12-12T03:13:43.238Z,5.37
2023-12-12T03:16:10.179Z,5.00
2023-12-12T03:18:36.994Z,4.17
2023-12-12T03:21:04.378Z,6.13
2023-12-12T03:23:31.654Z,5.53
2023-12-12T03:25:58.809Z,6.03
2023-12-12T03:28:26.192Z,5.57
2023-12-12T03:30:53.756Z,6.00
2023-12-12T03:33:20.907Z,5.27
2023-12-12T03:35:47.915Z,3.53
2023-12-12T03:38:14.681Z,7.13
2023-12-12T03:40:41.539Z,5.83
2023-12-12T03:43:08.799Z,4.13
2023-12-12T03:45:35.529Z,5.03
2023-12-12T03:48:02.311Z,6.30
2023-12-12T03:50:29.221Z,6.13
2023-12-12T03:52:56.046Z,6.03
2023-12-12T03:55:22.892Z,6.80
2023-12-12T03:57:49.740Z,5.17
2023-12-12T04:00:16.772Z,3.70
2023-12-12T04:02:43.693Z,5.13
2023-12-12T04:05:10.994Z,8.50
2023-12-12T04:07:41.312Z,6.20
2023-12-12T04:10:09.138Z,5.83
2023-12-12T04:12:36.884Z,4.13
2023-12-12T04:15:04.384Z,4.63
2023-12-12T04:17:31.963Z,3.17
2023-12-12T04:19:59.987Z,4.20
2023-12-12T04:22:26.946Z,4.60
2023-12-12T04:24:54.006Z,7.70
2023-12-12T04:27:20.845Z,4.50
2023-12-12T04:29:48.963Z,3.77
2023-12-12T04:32:16.277Z,3.30
2023-12-12T04:34:43.371Z,4.60
2023-12-12T04:37:10.465Z,3.10
2023-12-12T04:39:37.466Z,3.50
2023-12-12T04:42:05.722Z,4.10
2023-12-12T04:44:32.497Z,7.30
2023-12-12T04:46:59.309Z,4.07
2023-12-12T04:49:26.605Z,4.23
2023-12-12T04:51:53.461Z,6.17
2023-12-12T04:54:20.228Z,15.80
2023-12-12T04:56:47.099Z,7.93
2023-12-12T04:59:13.982Z,8.80
2023-12-12T05:01:41.175Z,8.90
2023-12-12T05:04:08.428Z,8.73
2023-12-12T05:06:35.538Z,8.40
2023-12-12T05:09:02.644Z,6.57
2023-12-12T05:11:29.869Z,4.37
2023-12-12T05:13:57.983Z,5.13
2023-12-12T05:16:31.687Z,2.70
2023-12-12T05:19:00.148Z,6.03
2023-12-12T05:21:27.868Z,4.93
2023-12-12T05:23:54.714Z,5.23
2023-12-12T05:26:21.464Z,5.70
2023-12-12T05:28:48.294Z,5.27
2023-12-12T05:31:15.366Z,4.43
2023-12-12T05:33:42.566Z,5.10
2023-12-12T05:36:10.464Z,4.27
2023-12-12T05:38:39.859Z,7.47
2023-12-12T05:41:07.581Z,4.63
2023-12-12T05:43:34.588Z,4.40
2023-12-12T05:46:01.479Z,2.83
2023-12-12T05:48:28.389Z,4.17
2023-12-12T05:50:56.453Z,5.50
2023-12-12T05:53:23.277Z,5.57
2023-12-12T05:55:49.989Z,4.43
2023-12-12T05:58:16.867Z,5.60
2023-12-12T06:00:43.734Z,2.63
2023-12-12T06:03:10.488Z,3.83
2023-12-12T06:05:37.197Z,4.03
2023-12-12T06:08:04.133Z,2.60
2023-12-12T06:10:30.848Z,4.20
2023-12-12T06:12:58.421Z,3.37
2023-12-12T06:15:25.160Z,4.07
2023-12-12T06:17:52.126Z,2.90
2023-12-12T06:20:19.292Z,5.93
2023-12-12T06:22:46.893Z,5.50
2023-12-12T06:25:13.844Z,3.93
2023-12-12T06:27:40.690Z,2.73
2023-12-12T06:30:08.814Z,3.47
2023-12-12T06:32:35.925Z,3.83
2023-12-12T06:35:06.065Z,2.63
2023-12-12T06:37:33.562Z,3.83
2023-12-12T06:40:01.434Z,4.37
2023-12-12T06:42:28.277Z,5.43
2023-12-12T06:44:55.106Z,3.23
2023-12-12T06:47:21.988Z,4.37
2023-12-12T06:49:49.263Z,3.53
2023-12-12T06:52:16.134Z,2.73
2023-12-12T06:54:42.911Z,3.80
2023-12-12T06:57:09.698Z,3.23
2023-12-12T06:59:36.476Z,3.60
2023-12-12T07:02:03.525Z,2.53
2023-12-12T07:04:31.041Z,2.17
2023-12-12T07:06:57.904Z,2.33
2023-12-12T07:09:24.680Z,4.17
2023-12-12T07:11:51.403Z,4.23
2023-12-12T07:14:18.210Z,3.23
2023-12-12T07:16:44.966Z,2.63
2023-12-12T07:19:11.790Z,2.10
2023-12-12T07:21:45.677Z,3.00
2023-12-12T07:24:15.765Z,2.77
2023-12-12T07:26:46.175Z,3.17
2023-12-12T07:29:13.204Z,4.10
2023-12-12T07:31:40.256Z,2.63
2023-12-12T07:34:07.258Z,3.17
2023-12-12T07:36:35.884Z,3.53
2023-12-12T07:39:02.676Z,1.63
2023-12-12T07:41:29.479Z,1.93
2023-12-12T07:43:56.507Z,1.60
2023-12-12T07:46:23.976Z,4.50
2023-12-12T07:48:51.415Z,3.27
2023-12-12T07:51:18.371Z,2.83
2023-12-12T07:53:45.097Z,3.47
2023-12-12T07:56:11.810Z,3.00
2023-12-12T07:58:39.063Z,3.77
2023-12-12T08:01:07.652Z,3.27
2023-12-12T08:03:35.735Z,3.07
2023-12-12T08:06:02.587Z,1.80
2023-12-12T08:08:29.374Z,2.37
2023-12-12T08:10:56.155Z,3.23
2023-12-12T08:13:23.605Z,2.90
2023-12-12T08:15:50.412Z,2.83
2023-12-12T08:18:17.213Z,2.93
2023-12-12T08:20:44.078Z,1.67
2023-12-12T08:23:11.371Z,2.63
2023-12-12T08:25:38.195Z,1.73
2023-12-12T08:28:05.346Z,2.67
2023-12-12T08:30:32.879Z,2.53
2023-12-12T08:33:00.048Z,1.60
2023-12-12T08:35:27.155Z,2.70
2023-12-12T08:37:54.484Z,3.00
2023-12-12T08:40:21.992Z,2.30
2023-12-12T08:42:49.411Z,2.23
2023-12-12T08:45:16.210Z,2.57
2023-12-12T08:47:42.967Z,2.70
2023-12-12T08:50:10.760Z,1.63
2023-12-12T08:52:38.279Z,2.67
2023-12-12T08:55:09.092Z,2.30
2023-12-12T08:57:36.075Z,2.70
2023-12-12T09:00:04.854Z,1.70
2023-12-12T09:02:31.655Z,2.50
2023-12-12T09:04:58.725Z,3.17
2023-12-12T09:07:25.555Z,2.37
2023-12-12T09:09:52.613Z,2.20
2023-12-12T09:12:19.416Z,1.73
2023-12-12T09:14:46.677Z,1.90
2023-12-12T09:17:13.975Z,1.97
2023-12-12T09:19:41.048Z,2.00
2023-12-12T09:22:07.973Z,2.60
2023-12-12T09:24:35.004Z,2.33
2023-12-12T09:27:02.264Z,3.00
2023-12-12T09:29:29.067Z,3.20
2023-12-12T09:31:57.202Z,3.63
2023-12-12T09:34:24.562Z,3.00
2023-12-12T09:36:51.934Z,3.10
2023-12-12T09:39:19.133Z,3.37
2023-12-12T09:41:48.916Z,3.07
2023-12-12T09:44:17.896Z,3.93
2023-12-12T09:46:45.985Z,3.40
2023-12-12T09:49:14.431Z,3.30
2023-12-12T09:51:44.954Z,4.57
2023-12-12T09:54:15.290Z,3.97
2023-12-12T09:56:42.371Z,4.60
2023-12-12T09:59:09.192Z,4.57
2023-12-12T10:01:36.606Z,4.83
2023-12-12T10:04:07.692Z,4.90
2023-12-12T10:06:43.446Z,4.23
2023-12-12T10:09:10.814Z,4.90
2023-12-12T10:11:37.552Z,4.40
2023-12-12T10:14:04.332Z,4.60
2023-12-12T10:16:32.245Z,5.77
2023-12-12T10:19:02.836Z,4.73
2023-12-12T10:21:30.380Z,5.43
2023-12-12T10:23:57.541Z,5.67
2023-12-12T10:26:32.691Z,5.43
2023-12-12T10:29:01.459Z,5.23
2023-12-12T10:31:28.985Z,5.07
2023-12-12T10:33:58.005Z,6.17
2023-12-12T10:36:28.763Z,5.87
2023-12-12T10:38:55.864Z,5.33
2023-12-12T10:41:25.785Z,5.67
2023-12-12T10:43:54.553Z,5.97
2023-12-12T10:46:21.878Z,5.53
2023-12-12T10:48:54.453Z,6.67
2023-12-12T10:51:21.838Z,7.33
2023-12-12T10:53:52.471Z,5.13
2023-12-12T10:56:21.041Z,5.70
2023-12-12T10:58:51.526Z,4.90
2023-12-12T11:01:19.112Z,5.00
2023-12-12T11:03:46.743Z,5.23
2023-12-12T11:06:14.258Z,5.00
2023-12-12T11:08:43.561Z,4.63
2023-12-12T11:11:13.493Z,4.63
2023-12-12T11:13:43.284Z,4.40
2023-12-12T11:16:12.032Z,5.07
2023-12-12T11:18:40.925Z,6.00
2023-12-12T11:21:09.438Z,5.70
2023-12-12T11:23:54.663Z,4.53
2023-12-12T11:26:27.459Z,3.73
2023-12-12T11:28:55.925Z,4.20
2023-12-12T11:31:29.441Z,3.40
2023-12-12T11:34:12.462Z,3.13
2023-12-12T11:36:52.285Z,2.90
2023-12-12T11:39:39.741Z,2.40
2023-12-12T11:42:16.407Z,2.67
2023-12-12T11:44:48.236Z,2.77
2023-12-12T11:47:16.550Z,2.97
2023-12-12T11:49:46.633Z,3.33
2023-12-12T11:52:39.637Z,3.10
2023-12-12T11:55:08.100Z,3.07
2023-12-12T11:57:34.991Z,2.40
2023-12-12T12:00:05.757Z,2.50
2023-12-12T12:02:32.964Z,2.20
2023-12-12T12:05:00.109Z,1.97
2023-12-12T12:07:30.218Z,2.00
2023-12-12T12:09:57.153Z,1.80
2023-12-12T12:12:24.066Z,2.20
2023-12-12T12:14:50.842Z,1.70
2023-12-12T12:17:17.672Z,2.23
2023-12-12T12:19:45.462Z,3.10
2023-12-12T12:22:14.001Z,2.20
2023-12-12T12:24:45.798Z,2.53
2023-12-12T12:27:13.554Z,1.70
2023-12-12T12:29:40.716Z,1.73
2023-12-12T12:32:14.698Z,1.60
2023-12-12T12:34:41.906Z,1.40
2023-12-12T12:37:28.971Z,1.37
2023-12-12T12:39:55.777Z,1.23
2023-12-12T12:42:22.650Z,1.40
2023-12-12T12:44:55.119Z,1.23
2023-12-12T12:47:22.471Z,1.27
2023-12-12T12:49:49.289Z,1.30
2023-12-12T12:52:16.044Z,1.10
2023-12-12T12:54:42.733Z,2.13
2023-12-12T12:57:13.699Z,1.07
2023-12-12T12:59:40.628Z,0.80
2023-12-12T13:02:08.745Z,1.10
2023-12-12T13:04:44.780Z,1.00
2023-12-12T13:07:11.728Z,0.87
2023-12-12T13:09:38.454Z,1.00
2023-12-12T13:12:05.779Z,0.90
2023-12-12T13:14:32.785Z,1.10
2023-12-12T13:16:59.930Z,1.30
2023-12-12T13:19:28.146Z,1.13
2023-12-12T13:21:55.556Z,1.23
2023-12-12T13:24:25.385Z,1.30
2023-12-12T13:26:52.874Z,1.30
2023-12-12T13:29:20.402Z,1.60
2023-12-12T13:31:47.329Z,1.20
2023-12-12T13:34:14.355Z,1.13
2023-12-12T13:36:43.074Z,1.00
2023-12-12T13:39:18.387Z,0.83
2023-12-12T13:41:47.774Z,0.97
2023-12-12T13:44:14.569Z,0.80
2023-12-12T13:46:41.385Z,1.00
2023-12-12T13:49:08.855Z,0.97
2023-12-12T13:51:44.073Z,1.50
2023-12-12T13:54:14.835Z,1.73
2023-12-12T13:56:41.881Z,1.13
2023-12-12T13:59:08.781Z,1.70
2023-12-12T14:01:36.040Z,1.40
2023-12-12T14:04:03.739Z,4.63
2023-12-12T14:06:30.734Z,3.40
2023-12-12T14:08:57.514Z,2.13
2023-12-12T14:11:26.250Z,3.93
2023-12-12T14:13:53.586Z,2.27
2023-12-12T14:16:28.153Z,2.13
2023-12-12T14:18:57.105Z,1.70
2023-12-12T14:21:23.980Z,1.20
2023-12-12T14:23:50.756Z,1.40
2023-12-12T14:26:18.784Z,0.90
2023-12-12T14:28:49.550Z,2.10
2023-12-12T14:31:17.989Z,1.13
2023-12-12T14:33:46.842Z,1.03
2023-12-12T14:36:14.526Z,1.87
2023-12-12T14:38:42.191Z,2.17
2023-12-12T14:41:09.002Z,1.50
2023-12-12T14:43:36.437Z,0.87
2023-12-12T14:46:03.397Z,1.10
2023-12-12T14:48:34.164Z,1.03
2023-12-12T14:51:01.757Z,1.00
2023-12-12T14:53:28.628Z,1.07
2023-12-12T14:55:55.545Z,0.90
2023-12-12T14:58:22.494Z,1.10
2023-12-12T15:00:49.944Z,0.90
2023-12-12T15:03:18.159Z,2.23
2023-12-12T15:05:46.044Z,0.87
2023-12-12T15:08:13.118Z,0.67
2023-12-12T15:10:40.503Z,0.60
2023-12-12T15:13:07.397Z,0.40
2023-12-12T15:15:34.359Z,0.60
2023-12-12T15:18:01.309Z,0.60
2023-12-12T15:20:28.133Z,0.67
2023-12-12T15:22:54.952Z,0.90
2023-12-12T15:25:28.407Z,0.80
2023-12-12T15:28:23.724Z,0.60
2023-12-12T15:30:49.845Z,0.50
2023-12-12T15:33:17.257Z,0.50
2023-12-12T15:35:44.648Z,0.73
2023-12-12T15:38:11.666Z,0.60
2023-12-12T15:40:38.467Z,0.90
2023-12-12T15:43:09.600Z,0.57
2023-12-12T15:45:37.483Z,0.50
2023-12-12T15:48:04.906Z,0.60
2023-12-12T15:50:31.879Z,0.40
2023-12-12T15:52:58.796Z,0.40
2023-12-12T15:55:25.663Z,0.50
2023-12-12T15:57:52.539Z,0.50
2023-12-12T16:00:19.735Z,0.90
2023-12-12T16:02:47.224Z,0.63
2023-12-12T16:05:14.269Z,0.70
2023-12-12T16:07:41.288Z,0.60
2023-12-12T16:10:09.585Z,0.63
2023-12-12T16:12:37.318Z,0.57
2023-12-12T16:15:09.907Z,0.43
2023-12-12T16:17:37.902Z,0.50
2023-12-12T16:20:08.766Z,0.53
2023-12-12T16:22:39.235Z,0.57
2023-12-12T16:25:06.920Z,0.60
2023-12-12T16:27:34.770Z,0.67
2023-12-12T16:30:01.976Z,0.67
2023-12-12T16:32:28.906Z,0.80
2023-12-12T16:34:56.041Z,0.90
2023-12-12T16:37:22.888Z,2.53
2023-12-12T16:39:49.742Z,0.90
2023-12-12T16:42:17.148Z,1.00
2023-12-12T16:44:44.561Z,1.17
2023-12-12T16:47:12.026Z,1.60
2023-12-12T16:49:39.220Z,1.47
2023-12-12T16:52:06.501Z,1.00
2023-12-12T16:54:33.453Z,1.10
2023-12-12T16:57:00.408Z,1.00
2023-12-12T16:59:30.349Z,1.20
2023-12-12T17:01:58.092Z,1.37
2023-12-12T17:04:29.994Z,1.40
2023-12-12T17:06:57.356Z,2.47
2023-12-12T17:09:24.758Z,3.23
2023-12-12T17:11:51.624Z,2.83
2023-12-12T17:14:18.504Z,3.90
2023-12-12T17:16:45.529Z,2.50
2023-12-12T17:19:13.068Z,2.50
2023-12-12T17:21:40.172Z,4.20
2023-12-12T17:24:07.983Z,3.50
2023-12-12T17:26:35.149Z,3.13
2023-12-12T17:29:01.901Z,3.03
2023-12-12T17:31:28.858Z,1.80
2023-12-12T17:33:55.707Z,2.87
2023-12-12T17:36:23.717Z,2.87
2023-12-12T17:38:50.777Z,2.10
2023-12-12T17:41:17.830Z,2.43
2023-12-12T17:43:45.502Z,1.70
2023-12-12T17:46:13.327Z,2.10
2023-12-12T17:48:41.300Z,1.80
2023-12-12T17:51:08.306Z,1.50
2023-12-12T17:53:35.577Z,1.50
2023-12-12T17:56:03.137Z,1.10
2023-12-12T17:58:30.183Z,1.20
2023-12-12T18:01:00.282Z,1.00
2023-12-12T18:03:29.999Z,2.20
2023-12-12T18:05:56.952Z,1.00
2023-12-12T18:08:23.832Z,1.30
2023-12-12T18:10:50.700Z,1.17
2023-12-12T18:13:19.819Z,1.20
2023-12-12T18:15:47.481Z,1.40
2023-12-12T18:18:14.460Z,1.50
2023-12-12T18:20:41.604Z,2.13
2023-12-12T18:23:08.559Z,1.70
2023-12-12T18:25:41.513Z,1.67
2023-12-12T18:28:08.788Z,1.90
2023-12-12T18:30:44.240Z,2.53
2023-12-12T18:33:11.761Z,2.53
2023-12-12T18:35:38.930Z,2.63
2023-12-12T18:38:06.113Z,3.20
2023-12-12T18:40:35.125Z,2.53
2023-12-12T18:43:02.108Z,3.30
2023-12-12T18:45:30.507Z,3.40
2023-12-12T18:48:00.800Z,5.20
2023-12-12T18:50:29.454Z,3.67
2023-12-12T18:52:57.323Z,2.63
2023-12-12T18:55:27.537Z,3.10
2023-12-12T18:57:56.354Z,3.10
2023-12-12T19:00:23.229Z,2.77
2023-12-12T19:02:50.138Z,5.27
2023-12-12T19:05:17.842Z,2.50
2023-12-12T19:07:45.269Z,2.60
2023-12-12T19:10:13.169Z,2.70
2023-12-12T19:12:43.372Z,4.70
2023-12-12T19:15:11.967Z,4.70
2023-12-12T19:17:39.958Z,4.43
2023-12-12T19:20:13.904Z,6.63
2023-12-12T19:22:40.887Z,4.47
2023-12-12T19:25:08.314Z,3.73
2023-12-12T19:27:36.204Z,4.63
2023-12-12T19:30:05.023Z,4.00
2023-12-12T19:32:33.274Z,4.77
2023-12-12T19:35:00.268Z,4.00
2023-12-12T19:37:27.109Z,3.33
2023-12-12T19:39:54.997Z,4.03
2023-12-12T19:42:21.862Z,4.00
2023-12-12T19:44:48.787Z,4.30
2023-12-12T19:47:15.680Z,3.43
2023-12-12T19:49:43.863Z,3.13
2023-12-12T19:52:11.378Z,3.27
2023-12-12T19:54:41.483Z,3.93
2023-12-12T19:57:08.496Z,3.37
2023-12-12T19:59:35.451Z,3.80
2023-12-12T20:02:03.241Z,2.97
2023-12-12T20:04:30.240Z,4.63
2023-12-12T20:06:58.360Z,3.93
2023-12-12T20:09:25.779Z,2.93
2023-12-12T20:11:52.669Z,5.33
2023-12-12T20:14:19.812Z,3.10
2023-12-12T20:16:47.193Z,3.40
2023-12-12T20:19:14.205Z,2.43
2023-12-12T20:21:41.832Z,2.77
2023-12-12T20:24:09.370Z,2.70
2023-12-12T20:26:44.849Z,2.40
2023-12-12T20:29:12.890Z,2.43
2023-12-12T20:31:40.434Z,2.50
2023-12-12T20:34:07.466Z,2.17
2023-12-12T20:36:37.611Z,1.77
2023-12-12T20:39:05.063Z,2.17
2023-12-12T20:41:35.669Z,2.40
2023-12-12T20:44:03.752Z,1.87
2023-12-12T20:46:30.669Z,2.50
2023-12-12T20:48:58.014Z,2.00
2023-12-12T20:51:25.774Z,2.33
2023-12-12T20:53:52.777Z,2.30
2023-12-12T20:56:19.852Z,3.07
2023-12-12T20:58:47.841Z,2.97
2023-12-12T21:01:15.042Z,3.40
2023-12-12T21:03:42.311Z,3.03
2023-12-12T21:06:09.556Z,2.97
2023-12-12T21:08:36.723Z,2.60
2023-12-12T21:11:03.663Z,3.07
2023-12-12T21:13:30.826Z,3.70
2023-12-12T21:15:57.955Z,2.87
2023-12-12T21:18:26.998Z,2.57
2023-12-12T21:20:54.212Z,2.57
2023-12-12T21:23:22.633Z,2.57
2023-12-12T21:25:49.887Z,2.70
2023-12-12T21:28:17.138Z,2.30
2023-12-12T21:30:44.155Z,2.50
2023-12-12T21:33:11.891Z,2.47
2023-12-12T21:35:38.741Z,3.27
2023-12-12T21:38:07.317Z,2.70
2023-12-12T21:40:34.560Z,2.77
2023-12-12T21:43:02.224Z,3.33
2023-12-12T21:45:29.140Z,5.70
2023-12-12T21:48:07.094Z,4.93
2023-12-12T21:50:34.530Z,2.50
2023-12-12T21:53:01.310Z,3.17
2023-12-12T21:55:28.133Z,3.60
2023-12-12T21:57:55.006Z,2.97
2023-12-12T22:00:21.870Z,3.17
2023-12-12T22:02:49.155Z,2.33
2023-12-12T22:05:16.091Z,2.63
2023-12-12T22:07:43.646Z,3.23
2023-12-12T22:10:10.775Z,2.33
2023-12-12T22:12:40.639Z,2.23
2023-12-12T22:15:08.991Z,2.50
2023-12-12T22:17:36.001Z,2.40
2023-12-12T22:20:06.690Z,1.70
2023-12-12T22:22:34.834Z,2.10
2023-12-12T22:25:01.851Z,1.97
2023-12-12T22:27:30.979Z,1.70
2023-12-12T22:29:58.137Z,1.97
2023-12-12T22:32:24.871Z,1.93
2023-12-12T22:34:51.662Z,2.17
2023-12-12T22:37:18.506Z,1.80
2023-12-12T22:39:45.212Z,1.60
2023-12-12T22:42:11.986Z,1.87
2023-12-12T22:44:38.780Z,2.47
2023-12-12T22:47:05.686Z,1.50
2023-12-12T22:49:32.581Z,2.20
2023-12-12T22:51:59.412Z,3.43
2023-12-12T22:54:26.187Z,4.03
2023-12-12T22:56:53.039Z,3.23
2023-12-12T22:59:19.930Z,2.67
2023-12-12T23:01:46.952Z,2.07
2023-12-12T23:04:14.005Z,2.20
2023-12-12T23:06:41.688Z,1.60
2023-12-12T23:09:11.772Z,2.33
2023-12-12T23:11:38.784Z,1.97
2023-12-12T23:14:05.785Z,1.73
2023-12-12T23:16:34.730Z,2.37
2023-12-12T23:19:01.637Z,1.67
2023-12-12T23:21:28.706Z,1.57
2023-12-12T23:23:55.494Z,1.40
2023-12-12T23:26:22.232Z,1.80
2023-12-12T23:28:49.942Z,1.43
2023-12-12T23:31:17.816Z,1.57
2023-12-12T23:33:46.322Z,1.50
2023-12-12T23:36:13.307Z,2.27
2023-12-12T23:38:40.110Z,2.50
2023-12-12T23:41:07.013Z,1.27
2023-12-12T23:43:34.046Z,1.57
2023-12-12T23:46:00.948Z,1.40
2023-12-12T23:48:27.778Z,2.77
2023-12-12T23:50:54.560Z,2.40
2023-12-12T23:53:21.288Z,2.40
2023-12-12T23:55:48.065Z,1.60
2023-12-12T23:58:14.850Z,1.17
